• Join FlightAware (Why Join?)
  • Login
  • US Flag 
Gobble Gobble! 
02:23AM EST


 

Airport Tracker/Info


-or-


 

Live Flight TrackerFlight Track Log ✈ N885FT ✈ 09-May-2014 ✈ KMLB - KTPA

Flight Track Log - Related Links

Times and Time Zones

All times are in EDT time to prevent confusion due to time zone crossing. See the N885FT flight status page for this flight to view local times or setup timezone preferences in your user account.

Time Position Orientation Groundspeed Altitude Reporting Facility
EDT Latitude Longitude Course Direction KTS MPH feet Rate Location/Type
10:01PM 28.0986 -81.1231 269° West 166 191 5,900  Level Miami Center
10:02PM 28.0978 -81.1747 269° West 166 191 6,000  Climbing Miami Center
10:03PM 28.0833 -81.2333 254° West 161 185 6,000  Level Orlando TRACON
10:04PM 28.0833 -81.2833 270° West 161 185 6,000  Level Orlando TRACON
10:05PM 28.0833 -81.3167 270° West 159 183 6,000  Level Orlando TRACON
10:06PM 28.0692 -81.3750 255° West 163 188 6,000  Level Miami Center
10:07PM 28.0639 -81.4275 264° West 169 194 6,000  Level Miami Center
10:08PM 28.0564 -81.4822 261° West 174 200 6,000  Level Miami Center
10:09PM 28.0506 -81.5431 264° West 164 189 6,000  Level Miami Center
10:10PM 28.0417 -81.5944 259° West 165 190 6,000  Level Miami Center
10:11PM 28.0358 -81.6469 263° West 168 193 6,000  Level Miami Center
10:12PM 28.0281 -81.6989 260° West 168 193 6,000  Level Miami Center
10:13PM 28.0208 -81.7517 261° West 168 193 6,000  Level Miami Center
10:14PM 28.0150 -81.8033 263° West 168 193 6,000  Level Miami Center
10:15PM 28.0075 -81.8556 261° West 169 194 6,000 -60 Level Miami Center
10:16PM 28.0006 -81.9081 261° West 169 194 5,900 -420 Descending Miami Center
10:17PM 27.9939 -81.9622 262° West 171 197 5,200 -600 Descending Miami Center
10:18PM 27.9861 -82.0136 260° West 169 194 4,700 -600 Descending Miami Center
10:19PM 27.9856 -82.0786 269° West 170 196 4,000 -360 Descending Miami Center
10:20PM 27.9839 -82.1269 268° West 160 184 4,000  Level Miami Center
10:21PM 27.9833 -82.1747 269° West 155 178 4,000  Level Miami Center
10:22PM 27.9814 -82.2228 267° West 155 178 4,000  Level Miami Center
10:23PM 27.9817 -82.2717 270° West 155 178 4,000  Level Miami Center
10:24PM 27.9803 -82.3197 268° West 155 178 4,000  Level Miami Center
10:26PM 27.9833 -82.3833 273° West 157 181 4,000  Level Tampa TRACON
10:27PM 27.9333 -82.4000 196° South 130 150 4,100  Climbing Tampa TRACON
10:28PM 27.9000 -82.4167 204° Southwest 134 154 4,100 -300 Level Tampa TRACON
10:29PM 27.8667 -82.4167 180° South 138 159 3,500 -540 Descending Tampa TRACON
10:30PM 27.8333 -82.4333 204° Southwest 139 160 3,100 -300 Descending Tampa TRACON
10:31PM 27.8000 -82.4500 204° Southwest 125 144 3,000  Descending Tampa TRACON
10:32PM 27.7667 -82.4667 204° Southwest 114 131 3,100 -120 Climbing Tampa TRACON
10:33PM 27.7333 -82.4833 204° Southwest 133 153 2,800 -180 Descending Tampa TRACON
10:34PM 27.7500 -82.5333 291° West 147 169 2,700 -60 Descending Tampa TRACON
10:35PM 27.7667 -82.5333 360° North 143 165 2,700  Level Tampa TRACON
10:36PM 27.8000 -82.5333 360° North 135 155 2,700  Level Tampa TRACON
10:37PM 27.8500 -82.5333 360° North 133 153 2,700 -360 Level Tampa TRACON
10:38PM 27.8833 -82.5333 360° North 128 147 2,100 -720 Descending Tampa TRACON
10:39PM 27.9167 -82.5333 360° North 114 131 1,300 -720 Descending Tampa TRACON
10:40PM 27.9500 -82.5333 360° North 110 127 600 -360 Descending Tampa TRACON
10:41PM 27.9833 -82.5333 360° North 90 104 400 -180 Descending Tampa TRACON